Time;durP1;ratioP1;P1;durP2;ratioP2;P2;SDS_P1;SDS_P2;PMS_P1;PMS_P2;Temp;Humidity;BMP_temperature;BMP_pressure;BME280_temperature;BME280_humidity;BME280_pressure;Samples;Min_cycle;Max_cycle;Signal;HPM_P1;HPM_P2
2022/10/23 00:01:44;;;;;;;9.77;5.38;;;;;;;;;;4995231;28;20033;-63
2022/10/23 00:04:16;;;;;;;12.25;5.10;;;;;;;;;;4998265;28;20070;-64
2022/10/23 00:06:42;;;;;;;9.02;4.57;;;;;;;;;;4975232;28;20085;-64
2022/10/23 00:09:11;;;;;;;9.63;5.05;;;;;;;;;;5003844;28;20054;-63
2022/10/23 00:11:37;;;;;;;12.55;5.35;;;;;;;;;;4987993;28;20034;-63
2022/10/23 00:14:05;;;;;;;13.07;5.15;;;;;;;;;;5004006;28;20056;-64
2022/10/23 00:16:31;;;;;;;11.27;5.30;;;;;;;;;;4997520;28;20038;-64
2022/10/23 00:18:57;;;;;;;9.65;4.68;;;;;;;;;;5004261;28;20360;-64
2022/10/23 00:21:23;;;;;;;12.50;5.35;;;;;;;;;;4997581;28;20034;-63
2022/10/23 00:23:49;;;;;;;8.82;4.80;;;;;;;;;;4996772;28;20566;-63
2022/10/23 00:26:14;;;;;;;12.60;5.38;;;;;;;;;;4975727;28;20146;-63
2022/10/23 00:28:45;;;;;;;12.77;5.30;;;;;;;;;;4987962;28;20038;-63
2022/10/23 00:31:11;;;;;;;10.18;4.75;;;;;;;;;;4991528;28;20394;-64
2022/10/23 00:33:37;;;;;;;10.75;5.20;;;;;;;;;;4988989;28;20042;-64
2022/10/23 00:36:04;;;;;;;12.35;4.82;;;;;;;;;;4984132;28;20037;-63
2022/10/23 00:38:30;;;;;;;12.27;5.10;;;;;;;;;;5006705;28;20041;-63
2022/10/23 00:40:55;;;;;;;8.88;4.75;;;;;;;;;;4989010;28;20034;-64
2022/10/23 00:43:23;;;;;;;11.38;5.28;;;;;;;;;;4979416;28;20553;-64
2022/10/23 00:45:49;;;;;;;11.40;5.30;;;;;;;;;;4977156;28;20114;-63
2022/10/23 00:48:16;;;;;;;15.20;6.47;;;;;;;;;;4978576;28;20034;-64
2022/10/23 00:50:42;;;;;;;12.52;5.70;;;;;;;;;;4974231;28;20487;-64
2022/10/23 00:53:09;;;;;;;13.10;5.85;;;;;;;;;;5009633;28;20088;-64
2022/10/23 00:55:37;;;;;;;12.65;6.15;;;;;;;;;;4996066;28;20084;-63
2022/10/23 00:58:03;;;;;;;12.00;6.07;;;;;;;;;;4983597;28;20384;-65
2022/10/23 01:00:50;;;;;;;15.82;6.35;;;;;;;;;;5002367;28;20026;-65
2022/10/23 01:03:19;;;;;;;12.57;5.95;;;;;;;;;;4979741;28;20656;-65
2022/10/23 01:05:58;;;;;;;11.05;5.80;;;;;;;;;;4983193;28;20073;-64
2022/10/23 01:08:48;;;;;;;12.45;5.80;;;;;;;;;;4990742;28;20042;-64
2022/10/23 01:11:16;;;;;;;9.88;5.82;;;;;;;;;;4979153;28;20027;-64
2022/10/23 01:14:05;;;;;;;15.23;6.20;;;;;;;;;;4990785;28;20037;-64
2022/10/23 01:16:55;;;;;;;9.93;5.70;;;;;;;;;;4992501;28;20497;-64
2022/10/23 01:19:47;;;;;;;14.07;6.28;;;;;;;;;;5002668;28;20042;-64
2022/10/23 01:22:36;;;;;;;11.25;5.50;;;;;;;;;;5001133;28;20054;-64
2022/10/23 01:25:28;;;;;;;13.02;5.80;;;;;;;;;;5000059;28;20547;-64
2022/10/23 01:28:00;;;;;;;10.52;5.80;;;;;;;;;;4992809;28;20069;-64
2022/10/23 01:30:26;;;;;;;10.88;5.45;;;;;;;;;;4982634;28;20093;-64
2022/10/23 01:33:00;;;;;;;13.32;5.45;;;;;;;;;;4992902;28;20042;-64
2022/10/23 01:35:28;;;;;;;11.10;5.70;;;;;;;;;;4998386;28;20482;-64
2022/10/23 01:38:02;;;;;;;12.57;6.10;;;;;;;;;;4988964;28;20042;-65
2022/10/23 01:40:49;;;;;;;10.20;5.30;;;;;;;;;;5012972;28;20069;-65
2022/10/23 01:43:19;;;;;;;13.13;5.57;;;;;;;;;;4999173;28;20038;-64
2022/10/23 01:45:49;;;;;;;14.15;5.93;;;;;;;;;;4988732;28;20084;-65
2022/10/23 01:48:23;;;;;;;13.80;5.55;;;;;;;;;;4970933;28;20050;-64
2022/10/23 01:50:50;;;;;;;10.95;5.68;;;;;;;;;;4986100;28;20105;-64
2022/10/23 01:53:18;;;;;;;11.77;5.30;;;;;;;;;;4989879;28;20118;-63
2022/10/23 01:55:45;;;;;;;13.13;5.55;;;;;;;;;;4995411;28;20030;-63
2022/10/23 01:58:12;;;;;;;10.82;5.40;;;;;;;;;;4988068;28;20399;-64
2022/10/23 02:00:40;;;;;;;12.95;5.65;;;;;;;;;;5004534;28;20402;-64
2022/10/23 02:03:06;;;;;;;12.75;5.25;;;;;;;;;;4994922;28;20041;-64
2022/10/23 02:05:32;;;;;;;14.60;5.50;;;;;;;;;;4996106;28;20387;-64
2022/10/23 02:07:59;;;;;;;13.70;5.30;;;;;;;;;;4983381;28;20541;-65
2022/10/23 02:10:31;;;;;;;9.30;5.30;;;;;;;;;;4974702;28;20031;-64
2022/10/23 02:13:10;;;;;;;12.05;5.45;;;;;;;;;;4991861;28;20110;-65
2022/10/23 02:15:39;;;;;;;10.90;5.03;;;;;;;;;;4976027;28;20432;-63
2022/10/23 02:18:30;;;;;;;13.25;5.40;;;;;;;;;;4995269;28;20046;-63
2022/10/23 02:21:18;;;;;;;10.85;5.30;;;;;;;;;;4988454;28;20042;-65
2022/10/23 02:23:43;;;;;;;11.18;5.20;;;;;;;;;;4972719;28;20082;-63
2022/10/23 02:26:19;;;;;;;16.73;6.25;;;;;;;;;;4986013;28;20459;-64
2022/10/23 02:28:50;;;;;;;9.15;5.25;;;;;;;;;;4990914;28;20035;-64
2022/10/23 02:31:19;;;;;;;14.20;5.45;;;;;;;;;;4974593;28;20039;-63
2022/10/23 02:33:46;;;;;;;16.10;5.90;;;;;;;;;;5012053;28;20413;-63
2022/10/23 02:36:12;;;;;;;20.45;6.95;;;;;;;;;;4978847;28;20039;-63
2022/10/23 02:38:42;;;;;;;13.98;6.03;;;;;;;;;;4972843;28;20475;-63
2022/10/23 02:41:45;;;;;;;16.85;7.13;;;;;;;;;;4971215;28;20062;-66
2022/10/23 02:44:42;;;;;;;16.23;6.95;;;;;;;;;;4981193;28;20493;-63
2022/10/23 02:47:28;;;;;;;19.48;6.78;;;;;;;;;;4991696;28;20038;-63
2022/10/23 02:50:06;;;;;;;16.15;7.03;;;;;;;;;;4977914;28;20488;-64
2022/10/23 02:52:54;;;;;;;14.55;6.28;;;;;;;;;;4990860;28;20045;-63
2022/10/23 02:55:40;;;;;;;20.83;6.65;;;;;;;;;;4990319;28;20092;-63
2022/10/23 02:58:12;;;;;;;16.58;6.47;;;;;;;;;;5006033;28;20041;-64
2022/10/23 03:00:41;;;;;;;16.33;6.57;;;;;;;;;;4990361;28;20038;-64
2022/10/23 03:03:16;;;;;;;13.85;6.07;;;;;;;;;;4975792;28;20365;-65
2022/10/23 03:05:43;;;;;;;20.73;6.88;;;;;;;;;;4991441;28;20036;-64
2022/10/23 03:08:11;;;;;;;14.00;6.55;;;;;;;;;;4997703;28;20359;-64
2022/10/23 03:10:37;;;;;;;16.98;7.15;;;;;;;;;;4987381;28;20074;-65
2022/10/23 03:13:02;;;;;;;19.15;7.03;;;;;;;;;;4977558;28;20034;-65
2022/10/23 03:15:28;;;;;;;20.67;6.95;;;;;;;;;;4995688;28;20058;-64
2022/10/23 03:17:53;;;;;;;19.73;7.15;;;;;;;;;;4976640;28;20152;-64
2022/10/23 03:20:19;;;;;;;15.75;7.05;;;;;;;;;;4990312;28;20038;-64
2022/10/23 03:22:44;;;;;;;18.75;7.22;;;;;;;;;;4989269;28;20088;-65
2022/10/23 03:25:09;;;;;;;21.23;7.18;;;;;;;;;;4974614;28;20035;-64
2022/10/23 03:27:35;;;;;;;19.50;7.35;;;;;;;;;;4977901;28;20140;-65
2022/10/23 03:30:02;;;;;;;15.30;6.85;;;;;;;;;;5006383;28;20038;-64
2022/10/23 03:32:28;;;;;;;15.57;6.63;;;;;;;;;;4978734;28;20506;-64
2022/10/23 03:34:53;;;;;;;16.48;6.78;;;;;;;;;;4999186;28;20027;-64
2022/10/23 03:37:19;;;;;;;12.73;5.72;;;;;;;;;;4975055;28;20035;-64
2022/10/23 03:39:44;;;;;;;10.48;5.50;;;;;;;;;;4980016;28;20364;-63
2022/10/23 03:42:09;;;;;;;17.27;6.22;;;;;;;;;;5000771;28;20068;-63
2022/10/23 03:44:35;;;;;;;13.77;5.75;;;;;;;;;;4974257;28;20035;-63
2022/10/23 03:47:00;;;;;;;13.60;5.70;;;;;;;;;;5000696;28;20029;-63
2022/10/23 03:49:25;;;;;;;14.40;5.22;;;;;;;;;;4999443;28;20042;-64
2022/10/23 03:51:51;;;;;;;10.07;5.10;;;;;;;;;;4991616;28;20513;-63
2022/10/23 03:54:25;;;;;;;13.07;5.45;;;;;;;;;;4997099;28;20050;-63
2022/10/23 03:56:51;;;;;;;13.50;5.35;;;;;;;;;;4996705;28;20037;-63
2022/10/23 03:59:17;;;;;;;11.52;4.78;;;;;;;;;;5010835;28;20018;-64
2022/10/23 04:01:42;;;;;;;9.23;5.13;;;;;;;;;;5001747;28;20386;-63
2022/10/23 04:04:08;;;;;;;10.63;5.22;;;;;;;;;;4991800;28;20029;-64
2022/10/23 04:06:34;;;;;;;12.18;5.32;;;;;;;;;;5004118;28;20042;-63
2022/10/23 04:09:00;;;;;;;13.98;5.38;;;;;;;;;;4988380;28;20026;-64
2022/10/23 04:11:25;;;;;;;11.15;4.93;;;;;;;;;;4994068;28;20526;-63
2022/10/23 04:13:50;;;;;;;10.57;4.53;;;;;;;;;;4998685;28;20093;-64
2022/10/23 04:16:16;;;;;;;12.23;4.60;;;;;;;;;;4980200;28;20088;-64
2022/10/23 04:18:41;;;;;;;11.18;4.75;;;;;;;;;;4974697;28;20415;-64
2022/10/23 04:21:07;;;;;;;8.45;5.00;;;;;;;;;;4976752;28;20039;-64
2022/10/23 04:23:32;;;;;;;8.35;4.45;;;;;;;;;;4993374;28;20058;-64
2022/10/23 04:25:58;;;;;;;10.02;4.90;;;;;;;;;;4986171;28;20046;-66
2022/10/23 04:28:24;;;;;;;12.27;4.80;;;;;;;;;;4973637;28;20054;-64
2022/10/23 04:30:50;;;;;;;8.77;4.68;;;;;;;;;;4975601;28;20026;-64
2022/10/23 04:33:15;;;;;;;7.65;4.13;;;;;;;;;;4982704;28;20097;-65
2022/10/23 04:35:40;;;;;;;9.98;4.85;;;;;;;;;;4983023;28;20061;-65
2022/10/23 04:38:06;;;;;;;12.88;5.38;;;;;;;;;;4978694;28;20462;-64
2022/10/23 04:40:31;;;;;;;13.57;5.25;;;;;;;;;;4993580;28;20491;-64
2022/10/23 04:42:57;;;;;;;9.95;4.90;;;;;;;;;;5009750;28;20037;-65
2022/10/23 04:45:22;;;;;;;13.38;5.07;;;;;;;;;;4999790;28;20026;-64
2022/10/23 04:47:48;;;;;;;11.35;5.57;;;;;;;;;;5010114;28;20037;-64
2022/10/23 04:50:14;;;;;;;11.13;5.00;;;;;;;;;;5002825;28;20155;-64
2022/10/23 04:52:39;;;;;;;11.35;5.78;;;;;;;;;;5012232;28;20038;-64
2022/10/23 04:55:06;;;;;;;14.38;5.63;;;;;;;;;;5011709;28;20501;-64
2022/10/23 04:57:31;;;;;;;13.70;5.25;;;;;;;;;;5005609;28;20042;-63
2022/10/23 04:59:57;;;;;;;9.25;5.32;;;;;;;;;;5013035;28;20034;-65
2022/10/23 05:02:23;;;;;;;10.45;5.20;;;;;;;;;;5007522;28;20042;-64
2022/10/23 05:04:48;;;;;;;13.93;5.88;;;;;;;;;;4998546;28;20052;-64
2022/10/23 05:07:14;;;;;;;8.77;5.43;;;;;;;;;;5012639;28;20065;-64
2022/10/23 05:09:39;;;;;;;9.90;5.18;;;;;;;;;;5008416;28;20034;-64
2022/10/23 05:12:05;;;;;;;12.90;5.63;;;;;;;;;;5003859;28;20467;-64
2022/10/23 05:14:30;;;;;;;10.70;5.53;;;;;;;;;;5013554;28;20029;-63
2022/10/23 05:16:55;;;;;;;9.85;4.93;;;;;;;;;;5012315;28;20411;-64
2022/10/23 05:19:25;;;;;;;13.05;5.32;;;;;;;;;;5008510;28;20035;-64
2022/10/23 05:21:54;;;;;;;10.95;5.18;;;;;;;;;;5002708;28;20054;-63
2022/10/23 05:24:24;;;;;;;12.40;5.25;;;;;;;;;;5012548;28;20103;-64
2022/10/23 05:26:51;;;;;;;11.57;5.70;;;;;;;;;;5011990;28;20060;-64
2022/10/23 05:29:19;;;;;;;9.90;5.40;;;;;;;;;;5010965;28;20022;-63
2022/10/23 05:31:47;;;;;;;12.82;5.30;;;;;;;;;;5005298;28;20072;-64
2022/10/23 05:34:15;;;;;;;11.23;5.63;;;;;;;;;;5005992;28;20468;-63
2022/10/23 05:36:41;;;;;;;10.63;5.80;;;;;;;;;;5002471;28;20058;-64
2022/10/23 05:39:06;;;;;;;11.80;5.40;;;;;;;;;;5000545;28;20030;-66
2022/10/23 05:41:32;;;;;;;10.85;5.20;;;;;;;;;;5008740;28;20033;-64
2022/10/23 05:43:57;;;;;;;12.85;5.38;;;;;;;;;;5011505;28;20033;-69
2022/10/23 05:46:23;;;;;;;9.43;5.40;;;;;;;;;;5011444;28;20029;-65
2022/10/23 05:48:51;;;;;;;10.55;5.70;;;;;;;;;;5011372;28;20081;-66
2022/10/23 05:51:21;;;;;;;12.30;5.90;;;;;;;;;;4983661;28;20499;-64
2022/10/23 05:53:47;;;;;;;12.13;6.70;;;;;;;;;;4992757;28;20030;-65
2022/10/23 05:56:13;;;;;;;10.18;5.63;;;;;;;;;;4992652;28;20118;-64
2022/10/23 05:58:38;;;;;;;12.65;5.68;;;;;;;;;;4993143;28;20133;-69
2022/10/23 06:01:08;;;;;;;11.50;5.43;;;;;;;;;;5005041;28;20521;-69
2022/10/23 06:03:35;;;;;;;8.43;5.30;;;;;;;;;;4986291;28;20110;-68
2022/10/23 06:06:00;;;;;;;12.25;5.35;;;;;;;;;;4972790;28;20045;-72
2022/10/23 06:08:26;;;;;;;14.10;5.63;;;;;;;;;;4974712;28;20026;-69
2022/10/23 06:10:51;;;;;;;13.48;5.50;;;;;;;;;;5004398;28;20482;-68
2022/10/23 06:13:17;;;;;;;9.15;5.25;;;;;;;;;;4991147;28;20479;-72
2022/10/23 06:15:42;;;;;;;12.18;5.30;;;;;;;;;;5009579;28;20036;-71
2022/10/23 06:18:07;;;;;;;15.10;5.55;;;;;;;;;;5007198;28;20120;-69
2022/10/23 06:20:37;;;;;;;10.25;5.50;;;;;;;;;;5011299;28;20065;-70
2022/10/23 06:23:04;;;;;;;10.77;5.28;;;;;;;;;;5009671;28;20045;-71
2022/10/23 06:25:29;;;;;;;11.27;5.20;;;;;;;;;;5012044;28;20067;-70
2022/10/23 06:27:55;;;;;;;14.45;5.43;;;;;;;;;;4999616;28;20109;-70
2022/10/23 06:30:20;;;;;;;13.02;5.80;;;;;;;;;;4995326;28;20029;-68
2022/10/23 06:32:45;;;;;;;13.05;5.57;;;;;;;;;;5004092;28;20269;-68
2022/10/23 06:35:11;;;;;;;12.00;5.10;;;;;;;;;;4989537;28;20030;-70
2022/10/23 06:37:36;;;;;;;13.07;5.03;;;;;;;;;;4996032;28;20072;-68
2022/10/23 06:40:02;;;;;;;10.88;4.95;;;;;;;;;;4997737;28;20467;-68
2022/10/23 06:42:28;;;;;;;7.60;4.88;;;;;;;;;;5004255;28;20038;-70
2022/10/23 06:44:54;;;;;;;10.30;5.20;;;;;;;;;;5003644;28;20049;-71
2022/10/23 06:47:19;;;;;;;11.35;5.18;;;;;;;;;;5004725;28;20029;-68
2022/10/23 06:49:45;;;;;;;9.23;5.40;;;;;;;;;;4993798;28;20033;-69
2022/10/23 06:52:10;;;;;;;11.57;5.03;;;;;;;;;;5007469;28;20036;-69
2022/10/23 06:54:35;;;;;;;14.38;5.25;;;;;;;;;;5007119;28;20132;-70
2022/10/23 06:57:01;;;;;;;10.02;5.15;;;;;;;;;;5010835;28;20026;-68
2022/10/23 06:59:26;;;;;;;8.57;4.95;;;;;;;;;;5009294;28;20030;-68
2022/10/23 07:01:52;;;;;;;13.85;4.95;;;;;;;;;;4992853;28;20094;-68
2022/10/23 07:04:17;;;;;;;8.93;4.80;;;;;;;;;;4984218;28;20540;-69
2022/10/23 07:06:42;;;;;;;11.82;5.18;;;;;;;;;;5008107;28;20058;-68
2022/10/23 07:09:08;;;;;;;8.57;4.88;;;;;;;;;;5008825;28;20060;-68
2022/10/23 07:11:34;;;;;;;13.18;4.70;;;;;;;;;;5007829;28;20060;-69
2022/10/23 07:13:59;;;;;;;12.27;5.22;;;;;;;;;;4990841;28;20479;-69
2022/10/23 07:16:25;;;;;;;8.77;4.72;;;;;;;;;;4987361;28;20433;-69
2022/10/23 07:18:58;;;;;;;9.93;4.85;;;;;;;;;;4989735;28;20039;-69
2022/10/23 07:21:24;;;;;;;9.88;4.75;;;;;;;;;;4982663;28;20038;-68
2022/10/23 07:23:50;;;;;;;9.45;4.75;;;;;;;;;;5004056;28;20057;-69
2022/10/23 07:26:15;;;;;;;12.30;4.90;;;;;;;;;;5009811;28;20121;-69
2022/10/23 07:28:43;;;;;;;8.07;4.35;;;;;;;;;;5010500;28;20034;-69
2022/10/23 07:31:09;;;;;;;10.52;4.57;;;;;;;;;;4990680;28;20034;-69
2022/10/23 07:33:35;;;;;;;11.77;4.82;;;;;;;;;;4981972;28;20119;-67
2022/10/23 07:36:03;;;;;;;10.98;4.75;;;;;;;;;;4994725;28;20121;-66
2022/10/23 07:38:28;;;;;;;8.60;4.75;;;;;;;;;;4972644;28;20034;-68
2022/10/23 07:40:57;;;;;;;8.20;4.65;;;;;;;;;;4996160;28;20386;-67
2022/10/23 07:43:22;;;;;;;11.90;4.30;;;;;;;;;;5010486;28;20030;-67
2022/10/23 07:45:48;;;;;;;9.00;4.40;;;;;;;;;;5009069;28;20036;-68
2022/10/23 07:48:15;;;;;;;12.60;4.65;;;;;;;;;;5006989;28;20049;-68
2022/10/23 07:50:40;;;;;;;13.55;5.30;;;;;;;;;;4985316;28;20039;-68
2022/10/23 07:53:05;;;;;;;7.80;4.43;;;;;;;;;;4976383;28;20030;-67
2022/10/23 07:55:31;;;;;;;9.60;4.38;;;;;;;;;;4986244;28;20125;-69
2022/10/23 07:57:56;;;;;;;11.23;5.10;;;;;;;;;;4987313;28;20038;-68
2022/10/23 08:00:21;;;;;;;8.25;4.38;;;;;;;;;;4974959;28;20121;-68
2022/10/23 08:02:47;;;;;;;13.52;4.70;;;;;;;;;;4983611;28;20384;-68
2022/10/23 08:05:12;;;;;;;12.70;4.93;;;;;;;;;;4988178;28;20038;-68
2022/10/23 08:07:39;;;;;;;9.38;4.78;;;;;;;;;;5014184;28;20084;-68
2022/10/23 08:10:05;;;;;;;8.18;4.68;;;;;;;;;;5005587;28;20040;-68
2022/10/23 08:12:31;;;;;;;8.13;4.63;;;;;;;;;;5014909;28;20037;-69
2022/10/23 08:14:56;;;;;;;9.13;4.82;;;;;;;;;;5009876;28;20026;-69
2022/10/23 08:17:21;;;;;;;9.68;4.95;;;;;;;;;;5013964;28;20620;-68
2022/10/23 08:19:47;;;;;;;7.88;4.63;;;;;;;;;;5013325;28;20529;-68
2022/10/23 08:22:13;;;;;;;7.88;4.30;;;;;;;;;;5013475;28;20053;-68
2022/10/23 08:24:39;;;;;;;7.50;4.47;;;;;;;;;;5013203;28;20049;-67
2022/10/23 08:27:04;;;;;;;8.90;4.30;;;;;;;;;;5003167;28;20034;-68
2022/10/23 08:29:29;;;;;;;9.13;4.15;;;;;;;;;;5007632;28;20041;-68
2022/10/23 08:31:56;;;;;;;14.23;4.05;;;;;;;;;;5014323;28;20066;-68
2022/10/23 08:34:22;;;;;;;8.50;4.28;;;;;;;;;;5011981;28;20033;-69
2022/10/23 08:36:47;;;;;;;8.75;4.40;;;;;;;;;;5014554;28;20521;-68
2022/10/23 08:39:12;;;;;;;12.15;4.50;;;;;;;;;;5005068;28;20034;-68
2022/10/23 08:41:46;;;;;;;12.77;4.00;;;;;;;;;;4993728;28;20047;-68
2022/10/23 08:44:18;;;;;;;9.32;4.30;;;;;;;;;;4991235;28;20087;-68
2022/10/23 08:46:46;;;;;;;11.20;3.83;;;;;;;;;;4983851;28;20380;-68
2022/10/23 08:49:22;;;;;;;9.50;4.00;;;;;;;;;;4989714;28;20026;-68
2022/10/23 08:51:50;;;;;;;10.85;4.03;;;;;;;;;;4994231;28;20475;-68
2022/10/23 08:54:30;;;;;;;8.20;4.40;;;;;;;;;;5009815;28;20072;-67
2022/10/23 08:57:07;;;;;;;9.85;4.18;;;;;;;;;;5013688;28;20032;-68
2022/10/23 08:59:42;;;;;;;9.02;4.30;;;;;;;;;;4995922;28;20109;-67
2022/10/23 09:02:19;;;;;;;10.98;3.90;;;;;;;;;;5001181;28;20061;-68
2022/10/23 09:04:47;;;;;;;7.55;3.65;;;;;;;;;;5013337;28;20548;-68
2022/10/23 09:07:41;;;;;;;10.57;3.60;;;;;;;;;;5007236;28;20032;-67
2022/10/23 09:10:16;;;;;;;8.20;3.67;;;;;;;;;;4993246;28;20034;-64
2022/10/23 09:12:41;;;;;;;7.53;3.38;;;;;;;;;;4995491;28;20132;-64
2022/10/23 09:15:09;;;;;;;6.80;3.47;;;;;;;;;;5000025;28;20050;-63
2022/10/23 09:17:38;;;;;;;9.25;3.63;;;;;;;;;;5006373;28;20042;-64
2022/10/23 09:20:19;;;;;;;6.75;3.40;;;;;;;;;;5004672;28;20034;-65
2022/10/23 09:22:46;;;;;;;8.60;3.55;;;;;;;;;;5009629;28;20100;-65
2022/10/23 09:25:24;;;;;;;10.80;3.65;;;;;;;;;;5011959;28;20438;-65
2022/10/23 09:27:53;;;;;;;6.53;3.50;;;;;;;;;;5006846;28;20022;-63
2022/10/23 09:30:26;;;;;;;7.93;3.47;;;;;;;;;;4991329;28;20061;-63
2022/10/23 09:32:52;;;;;;;8.00;3.72;;;;;;;;;;5005021;28;20533;-61
2022/10/23 09:35:25;;;;;;;7.68;3.60;;;;;;;;;;5006358;28;20034;-60
2022/10/23 09:37:54;;;;;;;8.75;3.33;;;;;;;;;;4973680;28;20444;-60
2022/10/23 09:40:29;;;;;;;6.32;3.30;;;;;;;;;;4973324;28;20054;-61
2022/10/23 09:42:58;;;;;;;6.88;3.53;;;;;;;;;;4993253;28;20072;-61
2022/10/23 09:45:34;;;;;;;9.50;3.10;;;;;;;;;;5000434;28;20061;-63
2022/10/23 09:48:16;;;;;;;7.97;3.70;;;;;;;;;;5012718;28;20493;-61
2022/10/23 09:50:49;;;;;;;7.38;3.08;;;;;;;;;;5010553;28;20078;-61
2022/10/23 09:53:17;;;;;;;8.20;3.10;;;;;;;;;;5011718;28;20061;-62
2022/10/23 09:55:54;;;;;;;9.82;3.47;;;;;;;;;;5012986;28;20034;-63
2022/10/23 09:58:26;;;;;;;9.85;3.20;;;;;;;;;;5006789;28;20045;-62
2022/10/23 10:00:51;;;;;;;6.57;3.20;;;;;;;;;;5012593;28;20029;-61
2022/10/23 10:03:23;;;;;;;6.55;2.88;;;;;;;;;;5011578;28;20423;-62
2022/10/23 10:05:58;;;;;;;6.43;2.95;;;;;;;;;;5012518;28;20026;-62
2022/10/23 10:08:27;;;;;;;9.02;3.25;;;;;;;;;;5011577;28;20116;-62
2022/10/23 10:11:24;;;;;;;9.30;3.00;;;;;;;;;;5012113;28;20029;-62
2022/10/23 10:14:05;;;;;;;6.35;2.90;;;;;;;;;;5009506;28;20427;-63
2022/10/23 10:16:34;;;;;;;4.75;2.55;;;;;;;;;;5010213;28;20072;-62
2022/10/23 10:19:09;;;;;;;4.80;2.88;;;;;;;;;;5012228;28;20034;-63
2022/10/23 10:21:56;;;;;;;8.43;2.80;;;;;;;;;;5011849;28;20026;-62
2022/10/23 10:24:55;;;;;;;5.47;2.50;;;;;;;;;;4992946;28;20056;-63
2022/10/23 10:27:39;;;;;;;4.60;2.75;;;;;;;;;;4991643;28;20042;-63
2022/10/23 10:30:14;;;;;;;5.75;2.83;;;;;;;;;;5010091;28;20037;-61
2022/10/23 10:32:50;;;;;;;7.85;3.03;;;;;;;;;;4995648;28;20051;-61
2022/10/23 10:35:28;;;;;;;7.53;2.85;;;;;;;;;;4972205;28;20510;-62
2022/10/23 10:38:15;;;;;;;7.22;2.80;;;;;;;;;;4980139;28;20126;-61
2022/10/23 10:40:45;;;;;;;5.30;2.80;;;;;;;;;;4992480;28;20041;-61
2022/10/23 10:43:14;;;;;;;5.75;2.40;;;;;;;;;;4992988;28;20429;-61
2022/10/23 10:45:53;;;;;;;5.50;2.60;;;;;;;;;;5011599;28;20044;-62
2022/10/23 10:48:46;;;;;;;6.18;2.60;;;;;;;;;;5010973;28;20080;-61
2022/10/23 10:51:16;;;;;;;6.15;2.70;;;;;;;;;;5011239;28;20033;-62
2022/10/23 10:54:03;;;;;;;6.80;2.70;;;;;;;;;;5011787;28;20372;-63
2022/10/23 10:56:32;;;;;;;6.90;2.70;;;;;;;;;;5010951;28;20748;-61
2022/10/23 10:59:10;;;;;;;6.38;2.38;;;;;;;;;;5008849;28;20395;-62
2022/10/23 11:01:52;;;;;;;5.40;2.70;;;;;;;;;;5008095;28;20132;-63
2022/10/23 11:04:35;;;;;;;4.88;2.60;;;;;;;;;;5009407;28;20044;-62
2022/10/23 11:07:07;;;;;;;6.47;2.40;;;;;;;;;;5011647;28;20030;-62
2022/10/23 11:09:33;;;;;;;8.10;2.75;;;;;;;;;;5010654;28;20475;-61
2022/10/23 11:11:58;;;;;;;8.13;2.45;;;;;;;;;;5011524;28;20116;-62
2022/10/23 11:14:27;;;;;;;5.55;2.38;;;;;;;;;;5010640;28;20026;-62
2022/10/23 11:17:00;;;;;;;5.78;2.42;;;;;;;;;;5009486;28;20426;-62
2022/10/23 11:19:29;;;;;;;6.38;2.40;;;;;;;;;;5004540;28;20033;-61
2022/10/23 11:22:00;;;;;;;5.57;2.30;;;;;;;;;;5011091;28;20054;-62
2022/10/23 11:24:47;;;;;;;4.78;2.35;;;;;;;;;;4972993;28;20495;-61
2022/10/23 11:27:30;;;;;;;9.18;2.45;;;;;;;;;;4972116;28;20041;-62
2022/10/23 11:30:27;;;;;;;6.35;2.80;;;;;;;;;;4972299;28;20026;-62
2022/10/23 11:33:03;;;;;;;6.03;2.70;;;;;;;;;;4980735;28;20030;-61
2022/10/23 11:36:04;;;;;;;9.50;2.70;;;;;;;;;;5005454;28;20446;-62
2022/10/23 11:38:33;;;;;;;7.57;2.45;;;;;;;;;;4992432;28;20031;-62
2022/10/23 11:41:02;;;;;;;4.72;2.38;;;;;;;;;;5010991;28;20244;-62
2022/10/23 11:43:32;;;;;;;5.10;2.33;;;;;;;;;;5007412;28;20033;-63
2022/10/23 11:45:58;;;;;;;9.25;2.58;;;;;;;;;;5014842;28;20025;-62
2022/10/23 11:48:43;;;;;;;8.60;2.30;;;;;;;;;;5010240;28;20022;-62
2022/10/23 11:51:32;;;;;;;6.65;2.38;;;;;;;;;;4994808;28;20050;-62
2022/10/23 11:54:27;;;;;;;8.93;2.08;;;;;;;;;;4995196;28;20088;-61
2022/10/23 11:57:05;;;;;;;4.68;2.65;;;;;;;;;;4995821;28;20085;-62
2022/10/23 11:59:37;;;;;;;6.35;2.70;;;;;;;;;;4994183;28;20150;-61
2022/10/23 12:02:16;;;;;;;8.25;2.50;;;;;;;;;;4994876;28;20037;-61
2022/10/23 12:04:48;;;;;;;4.90;2.30;;;;;;;;;;4994897;28;20391;-62
2022/10/23 12:07:23;;;;;;;15.10;2.80;;;;;;;;;;4994514;28;20109;-63
2022/10/23 12:09:56;;;;;;;5.03;2.35;;;;;;;;;;4995250;28;20027;-62
2022/10/23 12:12:39;;;;;;;7.13;2.20;;;;;;;;;;5003497;28;20488;-63
2022/10/23 12:15:13;;;;;;;8.20;2.53;;;;;;;;;;5013322;28;20029;-62
2022/10/23 12:17:40;;;;;;;3.75;2.05;;;;;;;;;;5005364;28;20487;-63
2022/10/23 12:20:11;;;;;;;4.97;2.60;;;;;;;;;;5014714;28;20057;-61
2022/10/23 12:22:44;;;;;;;5.47;2.40;;;;;;;;;;5005252;28;20047;-61
2022/10/23 12:25:48;;;;;;;6.43;2.20;;;;;;;;;;4975308;28;20038;-61
2022/10/23 12:28:19;;;;;;;5.68;2.28;;;;;;;;;;4974378;28;20043;-62
2022/10/23 12:30:58;;;;;;;9.02;2.17;;;;;;;;;;4976351;28;20476;-62
2022/10/23 12:33:51;;;;;;;5.95;2.28;;;;;;;;;;5008639;28;20038;-63
2022/10/23 12:36:46;;;;;;;5.35;2.50;;;;;;;;;;5013264;28;20081;-63
2022/10/23 12:39:28;;;;;;;6.15;2.35;;;;;;;;;;5014029;28;20034;-61
2022/10/23 12:41:55;;;;;;;5.07;2.10;;;;;;;;;;5006341;28;20037;-62
2022/10/23 12:44:22;;;;;;;6.05;2.10;;;;;;;;;;5013092;28;20068;-62
2022/10/23 12:46:50;;;;;;;4.00;2.10;;;;;;;;;;5012147;28;20030;-63
2022/10/23 12:49:20;;;;;;;8.55;2.15;;;;;;;;;;5012827;28;20030;-63
2022/10/23 12:52:03;;;;;;;4.88;2.20;;;;;;;;;;4998001;28;20472;-62
2022/10/23 12:54:38;;;;;;;6.75;2.13;;;;;;;;;;4991998;28;20716;-62
2022/10/23 12:57:29;;;;;;;4.60;2.05;;;;;;;;;;5003434;28;20030;-63
2022/10/23 12:59:58;;;;;;;5.13;1.90;;;;;;;;;;5011626;28;20090;-62
2022/10/23 13:02:26;;;;;;;5.37;2.03;;;;;;;;;;5012669;28;20399;-62
2022/10/23 13:04:53;;;;;;;3.45;1.80;;;;;;;;;;5012291;28;20347;-61
2022/10/23 13:07:22;;;;;;;3.70;1.90;;;;;;;;;;4996657;28;20047;-64
2022/10/23 13:09:48;;;;;;;8.23;2.10;;;;;;;;;;4989330;28;20038;-63
2022/10/23 13:12:23;;;;;;;4.80;1.90;;;;;;;;;;4992756;28;20099;-64
2022/10/23 13:15:06;;;;;;;4.85;1.90;;;;;;;;;;5010501;28;20034;-63
2022/10/23 13:17:41;;;;;;;6.30;2.00;;;;;;;;;;4984825;28;20058;-62
2022/10/23 13:20:16;;;;;;;5.43;1.80;;;;;;;;;;4993666;28;20045;-63
2022/10/23 13:22:41;;;;;;;4.38;2.05;;;;;;;;;;4998391;28;20043;-64
2022/10/23 13:25:37;;;;;;;7.15;2.00;;;;;;;;;;5011624;28;20088;-64
2022/10/23 13:28:22;;;;;;;6.25;1.90;;;;;;;;;;4976523;28;20041;-63
2022/10/23 13:31:23;;;;;;;5.22;2.20;;;;;;;;;;5012441;28;20034;-62
2022/10/23 13:34:09;;;;;;;5.57;2.08;;;;;;;;;;4997759;28;20038;-63
2022/10/23 13:36:38;;;;;;;13.32;2.10;;;;;;;;;;5006606;28;20334;-62
2022/10/23 13:39:09;;;;;;;8.25;2.00;;;;;;;;;;5013089;28;20120;-63
2022/10/23 13:41:43;;;;;;;6.50;2.22;;;;;;;;;;5008444;28;20039;-63
2022/10/23 13:44:11;;;;;;;4.28;2.50;;;;;;;;;;4986015;28;20043;-63
2022/10/23 13:46:37;;;;;;;7.20;2.25;;;;;;;;;;5007608;28;20258;-63
2022/10/23 13:49:02;;;;;;;8.93;2.15;;;;;;;;;;5009838;28;20566;-63
2022/10/23 13:51:30;;;;;;;4.68;2.03;;;;;;;;;;4991098;28;20037;-64
2022/10/23 13:53:56;;;;;;;5.50;1.85;;;;;;;;;;4982577;28;20081;-64
2022/10/23 13:56:23;;;;;;;4.20;2.00;;;;;;;;;;4992041;28;20030;-62
2022/10/23 13:58:49;;;;;;;5.22;1.90;;;;;;;;;;5003822;28;20100;-63
2022/10/23 14:01:41;;;;;;;7.38;1.92;;;;;;;;;;5012730;28;20325;-64
2022/10/23 14:04:07;;;;;;;5.13;2.08;;;;;;;;;;4986171;28;20053;-63
2022/10/23 14:06:33;;;;;;;8.07;2.20;;;;;;;;;;5007769;28;20575;-64
2022/10/23 14:08:58;;;;;;;5.18;1.90;;;;;;;;;;5011069;28;20125;-63
2022/10/23 14:11:24;;;;;;;5.63;2.05;;;;;;;;;;5006514;28;20034;-64
2022/10/23 14:13:51;;;;;;;4.57;2.03;;;;;;;;;;5012837;28;20529;-64
2022/10/23 14:16:19;;;;;;;9.52;2.15;;;;;;;;;;4993169;28;20030;-65
2022/10/23 14:18:44;;;;;;;5.43;2.08;;;;;;;;;;5012223;28;20525;-64
2022/10/23 14:21:12;;;;;;;8.23;1.90;;;;;;;;;;4999279;28;20030;-63
2022/10/23 14:23:37;;;;;;;5.63;2.28;;;;;;;;;;4994580;28;20132;-64
2022/10/23 14:26:04;;;;;;;6.32;2.10;;;;;;;;;;5007464;28;20394;-63
2022/10/23 14:28:29;;;;;;;4.97;1.98;;;;;;;;;;5010775;28;20126;-63
2022/10/23 14:30:54;;;;;;;4.35;2.03;;;;;;;;;;5012155;28;20570;-63
2022/10/23 14:33:20;;;;;;;7.10;2.03;;;;;;;;;;5010002;28;20467;-63
2022/10/23 14:35:45;;;;;;;6.78;1.83;;;;;;;;;;5003340;28;20399;-64
2022/10/23 14:38:11;;;;;;;5.95;2.10;;;;;;;;;;4991159;28;20036;-64
2022/10/23 14:40:37;;;;;;;4.82;1.90;;;;;;;;;;5004131;28;20078;-64
2022/10/23 14:43:03;;;;;;;5.82;2.22;;;;;;;;;;5004979;28;20052;-63
2022/10/23 14:45:28;;;;;;;7.15;2.30;;;;;;;;;;5010074;28;20390;-65
2022/10/23 14:47:54;;;;;;;8.43;2.38;;;;;;;;;;5011419;28;20063;-64
2022/10/23 14:50:19;;;;;;;5.95;2.40;;;;;;;;;;5013387;28;20050;-65
2022/10/23 14:52:45;;;;;;;10.00;2.60;;;;;;;;;;5012455;28;20034;-63
2022/10/23 14:55:10;;;;;;;9.15;2.15;;;;;;;;;;5011118;28;20458;-64
2022/10/23 14:57:36;;;;;;;7.50;2.15;;;;;;;;;;5004471;28;20034;-65